aviador You're here:

CYZP Decoded Metar

SANDSPIT in BC, CANADA
Report Time2018-05-26 15:00:00
UTC Time2018-05-26 15:41:18
Flight Rules vfr VFR
Wind150° at 29 Gusting to 34 kt
W.Decomp.*RWY 12: 28.7 kt HW 4.0 kt RCW
W.Rank150° ranks 4
Current wind is above 150° avg. (13.5)
Visibility9999 m
Phenomena:N/A
Clouds:Overcast 080 Hf
Expected CloudBase > 1,200 ft AGL from Temp-Dew spread
Ceiling8,000 ft
Temp08°C (ISA -7)
Dew Point05°C (82% RH)
AAT-3.5°C
QNH1009 hPa
Density Alt-561 ft
Elevation20 ft
Report Wrong Elevation
Raw Report
CYZP 261500Z AUTO 15029G34KT 9SM OVC080 08/05 A2979 RMK PRESFR
SLP089=

Extra information for CYZP:More info

Metar Taf Metar & Taf Last 4 Metars F.Rules Stats Wind Profile Meteogram Temp Stats Airport Information Weather charts Add Link Nearby VenuesMetar ALERT Operation Metar Decoded Social comments